Time;durP1;ratioP1;P1;durP2;ratioP2;P2;SDS_P1;SDS_P2;PMS_P1;PMS_P2;Temp;Humidity;BMP_temperature;BMP_pressure;BME280_temperature;BME280_humidity;BME280_pressure;Samples;Min_cycle;Max_cycle;Signal;HPM_P1;HPM_P2
2024/03/16 08:32:51;;;;;;;4.90;1.20;;;;;;;12.84;96.16;100027.00;107643;1302;556388;-91
2024/03/16 08:36:16;;;;;;;4.00;1.20;;;;;;;12.94;94.10;100022.39;109932;1281;22266;-92
2024/03/16 08:39:59;;;;;;;4.80;1.40;;;;;;;13.06;93.33;100020.94;110805;1270;22466;-90
2024/03/16 08:43:28;;;;;;;5.30;1.50;;;;;;;13.15;92.20;100013.55;110377;1259;22198;31
2024/03/16 08:47:02;;;;;;;5.30;1.30;;;;;;;13.23;92.01;100013.84;106862;1271;5004386;-89
2024/03/16 08:54:44;;;;;;;8.50;1.70;;;;;;;13.54;91.90;100005.92;110205;1273;22390;31
2024/03/16 08:58:52;;;;;;;7.00;1.50;;;;;;;13.78;91.28;100006.39;110251;1266;22388;31
2024/03/16 09:06:53;;;;;;;3.70;1.10;;;;;;;14.06;88.80;100009.80;110398;1275;22305;31
2024/03/16 09:14:32;;;;;;;5.70;0.90;;;;;;;14.20;87.68;100012.63;110513;1275;22420;31
2024/03/16 09:17:40;;;;;;;5.50;0.90;;;;;;;14.24;86.77;100013.09;110130;1277;22736;-91
2024/03/16 09:21:13;;;;;;;3.90;1.00;;;;;;;14.25;85.93;100013.65;110139;1280;22505;-92
2024/03/16 09:24:38;;;;;;;5.60;0.70;;;;;;;14.26;85.84;100011.25;110071;1276;22536;-91
2024/03/16 09:28:15;;;;;;;3.00;0.90;;;;;;;14.26;85.24;100017.02;110128;1276;22733;31
2024/03/16 09:31:57;;;;;;;3.80;0.90;;;;;;;14.28;84.79;100023.17;109866;1280;22568;-91
2024/03/16 09:35:11;;;;;;;4.80;1.00;;;;;;;14.33;85.27;100017.77;110080;1267;22692;31
2024/03/16 09:49:41;;;;;;;3.40;0.70;;;;;;;14.67;83.81;100022.23;107798;1275;22716;31
2024/03/16 09:56:09;;;;;;;4.70;0.40;;;;;;;14.79;80.66;100025.92;101739;1275;22486;-93
2024/03/16 10:00:21;;;;;;;2.90;0.80;;;;;;;14.79;80.72;100028.37;110304;1276;22303;31
2024/03/16 10:03:54;;;;;;;3.90;0.70;;;;;;;14.79;80.38;100025.20;108300;1277;22662;-92
2024/03/16 10:07:40;;;;;;;4.40;1.00;;;;;;;14.76;79.86;100026.23;109829;1276;22314;31
2024/03/16 10:11:12;;;;;;;3.90;0.90;;;;;;;14.69;79.39;100027.75;94410;1276;22485;31
2024/03/16 10:14:38;;;;;;;3.80;0.80;;;;;;;14.63;79.49;100028.94;89168;1277;22654;-91
2024/03/16 10:18:01;;;;;;;3.30;0.90;;;;;;;14.66;79.48;100021.95;109714;1261;22259;-90
2024/03/16 10:21:31;;;;;;;4.50;0.90;;;;;;;14.77;79.67;100021.27;108854;1284;22582;-89
2024/03/16 10:24:26;;;;;;;4.20;0.80;;;;;;;14.90;79.24;100018.53;109001;1284;22564;-91
2024/03/16 10:28:07;;;;;;;4.30;0.70;;;;;;;14.97;78.62;100018.11;109368;1284;22554;-91
2024/03/16 10:32:05;;;;;;;1.80;0.60;;;;;;;14.91;77.60;100022.40;109284;1286;22491;-91
2024/03/16 10:35:56;;;;;;;1.80;0.50;;;;;;;14.83;77.18;100016.60;109775;1284;22576;-92
2024/03/16 10:39:41;;;;;;;3.00;0.60;;;;;;;14.81;77.51;100017.38;109640;1280;23831;-92
2024/03/16 10:43:12;;;;;;;3.90;1.50;;;;;;;14.80;76.86;100021.10;109447;1283;22553;-90
2024/03/16 10:47:20;;;;;;;2.90;0.80;;;;;;;14.74;76.47;100019.89;108830;1282;22491;-90
2024/03/16 10:50:32;;;;;;;2.20;0.60;;;;;;;14.71;76.61;100019.58;108467;1281;22598;-89
2024/03/16 10:53:25;;;;;;;4.40;0.70;;;;;;;14.70;75.89;100016.16;108094;1281;25220;-90
2024/03/16 10:56:42;;;;;;;3.90;0.70;;;;;;;14.75;76.32;100018.46;108595;1281;22571;-90
2024/03/16 10:59:42;;;;;;;3.80;0.80;;;;;;;14.82;75.75;100022.23;108561;1281;22531;-90
2024/03/16 11:02:32;;;;;;;4.10;1.10;;;;;;;14.87;75.21;100022.06;108535;1280;22561;-90
2024/03/16 11:05:39;;;;;;;2.90;0.60;;;;;;;14.93;75.98;100021.95;108443;1281;24672;-90
2024/03/16 11:08:41;;;;;;;2.90;0.60;;;;;;;15.06;76.04;100019.20;108185;1281;23340;-80
2024/03/16 11:11:30;;;;;;;3.00;0.60;;;;;;;15.22;75.52;100019.47;107887;1273;22612;-85
2024/03/16 11:14:20;;;;;;;2.80;0.70;;;;;;;15.38;75.39;100018.39;107662;1281;22689;-85
2024/03/16 11:17:09;;;;;;;3.40;0.80;;;;;;;15.54;75.23;100012.72;107903;1275;22615;-80
2024/03/16 11:20:33;;;;;;;2.00;0.50;;;;;;;15.68;74.92;100007.39;107990;1281;25108;-80
2024/03/16 11:23:21;;;;;;;1.80;0.60;;;;;;;15.79;73.27;100009.71;108011;1281;23046;-79
2024/03/16 11:26:37;;;;;;;5.70;0.70;;;;;;;15.82;73.08;100006.54;108078;1281;22531;-80
2024/03/16 11:29:27;;;;;;;4.70;0.60;;;;;;;15.88;73.01;100002.23;107950;1279;22617;-79
2024/03/16 11:32:15;;;;;;;3.00;0.40;;;;;;;16.03;73.28;99999.73;107917;1275;23316;-80
2024/03/16 11:35:12;;;;;;;2.80;0.40;;;;;;;16.14;72.32;100000.07;107852;1280;22650;-79
2024/03/16 11:38:01;;;;;;;3.70;0.40;;;;;;;16.19;72.21;99996.75;108150;1273;22575;-80
2024/03/16 11:40:50;;;;;;;3.50;0.60;;;;;;;16.20;71.02;99993.13;108057;1280;22525;-80
2024/03/16 11:43:38;;;;;;;3.30;0.40;;;;;;;16.18;70.31;99996.29;107960;1278;22623;-79
2024/03/16 11:46:26;;;;;;;2.90;0.30;;;;;;;16.23;70.76;99997.44;108041;1281;25382;-80
2024/03/16 11:49:16;;;;;;;1.40;0.30;;;;;;;16.32;70.05;99989.48;107766;1279;22568;-80
2024/03/16 11:52:06;;;;;;;3.00;0.30;;;;;;;16.42;67.37;99998.52;107430;1278;22554;-80
2024/03/16 11:54:54;;;;;;;1.90;0.40;;;;;;;16.39;67.28;99999.88;107500;1279;22589;-81
2024/03/16 11:57:43;;;;;;;4.20;0.30;;;;;;;16.35;66.69;99996.77;107508;1272;22918;-81
2024/03/16 12:00:31;;;;;;;2.40;0.30;;;;;;;16.36;67.32;99992.92;107558;1275;22680;-80
2024/03/16 12:03:20;;;;;;;2.30;0.20;;;;;;;16.36;67.02;99989.50;107591;1279;22660;-80
2024/03/16 12:06:09;;;;;;;6.40;0.40;;;;;;;16.34;66.57;99991.71;107688;1272;22581;-80
2024/03/16 12:08:58;;;;;;;2.20;0.30;;;;;;;16.33;66.79;99990.02;107566;1279;25450;-80
2024/03/16 12:11:46;;;;;;;3.00;0.50;;;;;;;16.35;66.85;99990.73;107657;1276;23200;-80
2024/03/16 12:14:35;;;;;;;3.90;0.50;;;;;;;16.40;66.52;99988.59;107484;1272;24225;-80
2024/03/16 12:17:23;;;;;;;3.60;0.50;;;;;;;16.43;66.22;99984.88;109401;1279;23331;-82
2024/03/16 12:20:12;;;;;;;3.90;0.40;;;;;;;16.41;65.82;99984.04;107845;1273;23901;-81
2024/03/16 12:23:00;;;;;;;3.50;0.40;;;;;;;16.35;65.81;99985.26;107722;1277;23379;-80
2024/03/16 12:25:49;;;;;;;3.40;0.40;;;;;;;16.32;65.45;99983.80;107556;1265;22543;-80
2024/03/16 12:28:38;;;;;;;3.40;0.40;;;;;;;16.30;65.32;99979.61;107858;1279;25562;-81
2024/03/16 12:31:27;;;;;;;1.40;0.30;;;;;;;16.27;65.16;99982.30;107756;1279;22543;-88
2024/03/16 12:34:18;;;;;;;3.40;0.40;;;;;;;16.25;64.81;99977.63;107954;1279;22676;-86
2024/03/16 12:37:09;;;;;;;1.60;0.30;;;;;;;16.24;64.08;99981.61;107886;1279;26505;-86
2024/03/16 12:40:01;;;;;;;1.80;0.30;;;;;;;16.25;63.86;99978.53;110187;1272;23024;-86
2024/03/16 12:42:52;;;;;;;2.40;0.30;;;;;;;16.33;64.01;99980.82;108965;1278;22531;-85
2024/03/16 12:45:41;;;;;;;1.70;0.20;;;;;;;16.36;63.54;99975.67;107695;1279;22569;-85
2024/03/16 12:48:30;;;;;;;5.20;0.40;;;;;;;16.37;63.58;99972.13;107728;1272;22530;-85
